Time;durP1;ratioP1;P1;durP2;ratioP2;P2;SDS_P1;SDS_P2;PMS_P1;PMS_P2;Temp;Humidity;BMP_temperature;BMP_pressure;BME280_temperature;BME280_humidity;BME280_pressure;Samples;Min_cycle;Max_cycle;Signal;HPM_P1;HPM_P2
2023/06/08 00:01:57;;;;;;;;;;;20.20;54.00;;;;;;5033821;28;19920;-72
2023/06/08 00:04:22;;;;;;;;;;;20.20;54.00;;;;;;5052126;28;20257;-71
2023/06/08 00:06:49;;;;;;;;;;;20.20;54.10;;;;;;5051818;28;19917;-73
2023/06/08 00:09:15;;;;;;;;;;;20.20;54.10;;;;;;5051828;28;19916;-73
2023/06/08 00:11:41;;;;;;;;;;;20.20;54.10;;;;;;5052061;28;19939;-73
2023/06/08 00:14:06;;;;;;;;;;;20.10;54.20;;;;;;5052394;28;19909;-73
2023/06/08 00:16:33;;;;;;;;;;;20.10;54.20;;;;;;5050310;28;19952;-73
2023/06/08 00:19:00;;;;;;;;;;;20.00;54.30;;;;;;5051809;28;20331;-73
2023/06/08 00:21:29;;;;;;;;;;;20.00;54.40;;;;;;5051334;28;20280;-72
2023/06/08 00:23:55;;;;;;;;;;;19.90;54.50;;;;;;5051598;28;20422;-73
2023/06/08 00:26:21;;;;;;;;;;;19.90;54.50;;;;;;5051463;28;19909;-73
2023/06/08 00:28:49;;;;;;;;;;;19.80;54.50;;;;;;5051631;28;19999;-73
2023/06/08 00:31:15;;;;;;;;;;;19.80;54.40;;;;;;5051692;28;19934;-72
2023/06/08 00:33:40;;;;;;;;;;;19.80;54.40;;;;;;5051971;28;19982;-73
2023/06/08 00:36:06;;;;;;;;;;;19.80;54.40;;;;;;5057746;28;19928;-72
2023/06/08 00:38:32;;;;;;;;;;;19.70;54.60;;;;;;5071816;28;19925;-72
2023/06/08 00:40:57;;;;;;;;;;;19.70;54.60;;;;;;5066617;28;20004;-73
2023/06/08 00:43:22;;;;;;;;;;;19.70;54.70;;;;;;5051250;28;19936;-72
2023/06/08 00:45:48;;;;;;;;;;;19.70;54.70;;;;;;5051482;28;19955;-72
2023/06/08 00:48:14;;;;;;;;;;;19.70;54.80;;;;;;5051066;28;19917;-72
2023/06/08 00:50:41;;;;;;;;;;;19.60;54.90;;;;;;5051433;28;19917;-72
2023/06/08 00:53:06;;;;;;;;;;;19.60;55.00;;;;;;5051170;28;19948;-72
2023/06/08 00:55:33;;;;;;;;;;;19.60;55.10;;;;;;5051033;28;19916;-72
2023/06/08 00:58:01;;;;;;;;;;;19.60;55.10;;;;;;5051596;28;19921;-78
2023/06/08 01:00:27;;;;;;;;;;;19.60;55.20;;;;;;5050678;28;19936;-77
2023/06/08 01:02:53;;;;;;;;;;;19.60;55.30;;;;;;5051194;28;20018;-78
2023/06/08 01:05:18;;;;;;;;;;;19.60;55.30;;;;;;5051293;28;19909;-78
2023/06/08 01:07:48;;;;;;;;;;;19.60;55.30;;;;;;5039420;28;19921;-78
2023/06/08 01:10:20;;;;;;;;;;;19.60;55.20;;;;;;5031751;28;19920;-78
2023/06/08 01:12:47;;;;;;;;;;;19.70;55.20;;;;;;5032513;28;19921;-78
2023/06/08 01:15:18;;;;;;;;;;;19.70;55.20;;;;;;5035177;28;19917;-78
2023/06/08 01:17:52;;;;;;;;;;;19.70;55.10;;;;;;5035017;28;19917;-72
2023/06/08 01:20:36;;;;;;;;;;;19.60;55.20;;;;;;5050347;28;19970;-73
2023/06/08 01:23:20;;;;;;;;;;;19.60;55.10;;;;;;5054776;28;19940;-72
2023/06/08 01:25:48;;;;;;;;;;;19.60;55.10;;;;;;5034640;28;19909;-72
2023/06/08 01:28:13;;;;;;;;;;;19.60;55.20;;;;;;5044255;28;19916;-78
2023/06/08 01:30:46;;;;;;;;;;;19.60;55.20;;;;;;5054204;28;19909;-78
2023/06/08 01:33:12;;;;;;;;;;;19.60;55.20;;;;;;5054788;28;20348;-78
2023/06/08 01:35:38;;;;;;;;;;;19.60;55.10;;;;;;5038736;28;20272;-78
2023/06/08 01:38:22;;;;;;;;;;;19.60;55.00;;;;;;5074799;28;19916;-78
2023/06/08 01:40:50;;;;;;;;;;;19.60;54.90;;;;;;5065079;28;19958;-78
2023/06/08 01:43:16;;;;;;;;;;;19.60;54.90;;;;;;5072972;28;20256;-78
2023/06/08 01:45:45;;;;;;;;;;;19.60;54.70;;;;;;5074036;28;19923;-78
2023/06/08 01:48:10;;;;;;;;;;;19.70;54.60;;;;;;5074490;28;19916;-78
2023/06/08 01:50:37;;;;;;;;;;;19.70;54.50;;;;;;5073974;28;19909;-78
2023/06/08 01:53:02;;;;;;;;;;;19.70;54.50;;;;;;5074071;28;20027;-76
2023/06/08 01:55:28;;;;;;;;;;;19.70;54.40;;;;;;5073840;28;20003;-78
2023/06/08 01:57:53;;;;;;;;;;;19.70;54.30;;;;;;5074165;28;20019;-78
2023/06/08 02:00:20;;;;;;;;;;;19.70;54.40;;;;;;5074064;28;19995;-78
2023/06/08 02:02:45;;;;;;;;;;;19.70;54.40;;;;;;5073585;28;19924;-78
2023/06/08 02:05:11;;;;;;;;;;;19.70;54.30;;;;;;5065920;28;20292;-78
2023/06/08 02:07:37;;;;;;;;;;;19.70;54.30;;;;;;5053777;28;19943;-79
2023/06/08 02:10:04;;;;;;;;;;;19.70;54.40;;;;;;5053844;28;20005;-77
2023/06/08 02:12:29;;;;;;;;;;;19.70;54.60;;;;;;5049513;28;20003;-77
2023/06/08 02:14:55;;;;;;;;;;;19.60;54.80;;;;;;5053307;28;20008;-77
2023/06/08 02:17:25;;;;;;;;;;;19.60;55.00;;;;;;5036053;28;19917;-77
2023/06/08 02:19:51;;;;;;;;;;;19.50;55.10;;;;;;5054618;28;20406;-77
2023/06/08 02:22:16;;;;;;;;;;;19.40;55.10;;;;;;5053635;28;19948;-77
2023/06/08 02:24:42;;;;;;;;;;;19.40;55.40;;;;;;5052461;28;19921;-78
2023/06/08 02:27:08;;;;;;;;;;;19.30;55.40;;;;;;5053626;28;19928;-77
2023/06/08 02:29:37;;;;;;;;;;;19.30;55.50;;;;;;5052385;28;19913;-77
2023/06/08 02:32:02;;;;;;;;;;;19.20;55.70;;;;;;5041259;28;19918;-78
2023/06/08 02:34:28;;;;;;;;;;;19.20;55.80;;;;;;5048340;28;20265;-78
2023/06/08 02:36:53;;;;;;;;;;;19.20;55.80;;;;;;5066232;28;19917;-78
2023/06/08 02:39:19;;;;;;;;;;;19.10;56.00;;;;;;5073185;28;19915;-78
2023/06/08 02:41:44;;;;;;;;;;;19.10;56.00;;;;;;5060665;28;19932;-78
2023/06/08 02:44:10;;;;;;;;;;;19.10;56.10;;;;;;5052957;28;20399;-78
2023/06/08 02:46:36;;;;;;;;;;;19.10;56.20;;;;;;5052817;28;19909;-79
2023/06/08 02:49:02;;;;;;;;;;;19.00;56.30;;;;;;5052516;28;20058;-79
2023/06/08 02:51:27;;;;;;;;;;;18.90;56.50;;;;;;5034925;28;19967;-79
2023/06/08 02:53:53;;;;;;;;;;;18.80;56.60;;;;;;5052904;28;19917;-78
2023/06/08 02:56:18;;;;;;;;;;;18.70;56.80;;;;;;5052510;28;19973;-78
2023/06/08 02:58:46;;;;;;;;;;;18.70;57.10;;;;;;5053495;28;20026;-79
2023/06/08 03:01:14;;;;;;;;;;;18.60;57.30;;;;;;5053071;28;19944;-79
2023/06/08 03:03:43;;;;;;;;;;;18.60;57.50;;;;;;5053232;28;19917;-79
2023/06/08 03:06:09;;;;;;;;;;;18.50;57.90;;;;;;5052721;28;20682;-79
2023/06/08 03:08:36;;;;;;;;;;;18.50;58.30;;;;;;5053042;28;19919;-79
2023/06/08 03:11:02;;;;;;;;;;;18.40;58.60;;;;;;5051485;28;19913;-80
2023/06/08 03:13:27;;;;;;;;;;;18.30;58.80;;;;;;5052666;28;19924;-79
2023/06/08 03:15:53;;;;;;;;;;;18.30;58.80;;;;;;5052387;28;19962;-80
2023/06/08 03:18:18;;;;;;;;;;;18.30;58.80;;;;;;5051219;28;20004;-79
2023/06/08 03:20:47;;;;;;;;;;;18.30;59.00;;;;;;5014639;28;19909;-79
2023/06/08 03:23:13;;;;;;;;;;;18.20;59.10;;;;;;5014702;28;20365;-79
2023/06/08 03:25:38;;;;;;;;;;;18.20;59.20;;;;;;5032406;28;19963;-79
2023/06/08 03:28:04;;;;;;;;;;;18.20;59.20;;;;;;5032590;28;19917;-79
2023/06/08 03:30:30;;;;;;;;;;;18.10;59.10;;;;;;5034486;28;19916;-79
2023/06/08 03:32:56;;;;;;;;;;;18.20;59.20;;;;;;5052264;28;19924;-79
2023/06/08 03:35:21;;;;;;;;;;;18.10;59.20;;;;;;5052456;28;19917;-79
2023/06/08 03:37:47;;;;;;;;;;;18.10;59.30;;;;;;5058885;28;19921;-79
2023/06/08 03:40:12;;;;;;;;;;;18.10;59.40;;;;;;5034148;28;20003;-79
2023/06/08 03:42:37;;;;;;;;;;;18.10;59.50;;;;;;5070527;28;19928;-79
2023/06/08 03:45:03;;;;;;;;;;;18.00;59.50;;;;;;5062729;28;20382;-78
2023/06/08 03:47:31;;;;;;;;;;;18.00;59.60;;;;;;5051891;28;20413;-77
2023/06/08 03:49:56;;;;;;;;;;;18.00;59.60;;;;;;5051683;28;19921;-77
2023/06/08 03:52:22;;;;;;;;;;;18.00;59.70;;;;;;5035595;28;19928;-78
2023/06/08 03:54:47;;;;;;;;;;;18.00;59.70;;;;;;5013901;28;19909;-77
2023/06/08 03:57:13;;;;;;;;;;;18.00;59.60;;;;;;5031963;28;19913;-79
2023/06/08 03:59:39;;;;;;;;;;;18.00;59.50;;;;;;5031815;28;20016;-79
2023/06/08 04:02:05;;;;;;;;;;;18.10;59.50;;;;;;5014041;28;20327;-78
2023/06/08 04:04:30;;;;;;;;;;;18.10;59.60;;;;;;5048101;28;20279;-78
2023/06/08 04:07:00;;;;;;;;;;;18.10;59.60;;;;;;5051812;28;19958;-79
2023/06/08 04:09:28;;;;;;;;;;;18.10;59.60;;;;;;5044195;28;19913;-80
2023/06/08 04:11:54;;;;;;;;;;;18.10;59.60;;;;;;5049692;28;20478;-79
2023/06/08 04:14:20;;;;;;;;;;;18.10;59.60;;;;;;5051054;28;19990;-79
2023/06/08 04:16:45;;;;;;;;;;;18.10;59.50;;;;;;5051254;28;19993;-79
2023/06/08 04:19:11;;;;;;;;;;;18.10;59.50;;;;;;5051480;28;19939;-79
2023/06/08 04:21:36;;;;;;;;;;;18.20;59.40;;;;;;5051312;28;19909;-79
2023/06/08 04:24:02;;;;;;;;;;;18.20;59.40;;;;;;5051526;28;19969;-76
2023/06/08 04:26:28;;;;;;;;;;;18.20;59.40;;;;;;5033729;28;19913;-73
2023/06/08 04:28:54;;;;;;;;;;;18.30;59.30;;;;;;5050109;28;19974;-73
2023/06/08 04:31:20;;;;;;;;;;;18.30;59.20;;;;;;5047627;28;20372;-73
2023/06/08 04:33:45;;;;;;;;;;;18.40;59.10;;;;;;5031499;28;19948;-73
2023/06/08 04:36:11;;;;;;;;;;;18.40;58.90;;;;;;5045555;28;19974;-74
2023/06/08 04:38:36;;;;;;;;;;;18.50;58.90;;;;;;5071920;28;20364;-74
2023/06/08 04:41:02;;;;;;;;;;;18.60;58.70;;;;;;5066093;28;20004;-73
2023/06/08 04:43:31;;;;;;;;;;;18.60;58.50;;;;;;5051610;28;19927;-73
2023/06/08 04:46:00;;;;;;;;;;;18.60;58.40;;;;;;5051201;28;20395;-73
2023/06/08 04:48:26;;;;;;;;;;;18.70;58.20;;;;;;5053495;28;19924;-73
2023/06/08 04:50:52;;;;;;;;;;;18.70;58.10;;;;;;5055430;28;19909;-73
2023/06/08 04:53:20;;;;;;;;;;;18.70;58.00;;;;;;5055639;28;20017;-73
2023/06/08 04:55:46;;;;;;;;;;;18.80;57.70;;;;;;5055078;28;19959;-73
2023/06/08 04:58:12;;;;;;;;;;;18.80;57.60;;;;;;5055473;28;20019;-73
2023/06/08 05:00:38;;;;;;;;;;;18.80;57.50;;;;;;5055452;28;19916;-73
2023/06/08 05:03:04;;;;;;;;;;;18.80;57.40;;;;;;5055126;28;19917;-73
2023/06/08 05:05:31;;;;;;;;;;;18.90;57.40;;;;;;5055021;28;20296;-73
2023/06/08 05:07:56;;;;;;;;;;;19.00;57.30;;;;;;5055242;28;19916;-73
2023/06/08 05:10:21;;;;;;;;;;;19.10;57.20;;;;;;5037197;28;20041;-73
2023/06/08 05:12:47;;;;;;;;;;;19.20;57.10;;;;;;5054025;28;19921;-73
2023/06/08 05:15:12;;;;;;;;;;;19.20;56.90;;;;;;5054825;28;20288;-74
2023/06/08 05:17:38;;;;;;;;;;;19.30;56.70;;;;;;5044700;28;20339;-73
2023/06/08 05:20:04;;;;;;;;;;;19.30;56.60;;;;;;5037797;28;19995;-73
2023/06/08 05:22:29;;;;;;;;;;;19.30;56.30;;;;;;5045740;28;19924;-73
2023/06/08 05:24:55;;;;;;;;;;;19.40;56.20;;;;;;5054577;28;19931;-73
2023/06/08 05:27:20;;;;;;;;;;;19.40;56.10;;;;;;5037763;28;19924;-79
2023/06/08 05:29:45;;;;;;;;;;;19.50;56.10;;;;;;5016983;28;19916;-79
2023/06/08 05:32:11;;;;;;;;;;;19.50;55.90;;;;;;5034879;28;19917;-79
2023/06/08 05:34:36;;;;;;;;;;;19.50;55.60;;;;;;5034661;28;19916;-79
2023/06/08 05:37:02;;;;;;;;;;;19.50;55.40;;;;;;5044471;28;19961;-79
2023/06/08 05:39:27;;;;;;;;;;;19.50;55.50;;;;;;5051298;28;19909;-78
2023/06/08 05:41:53;;;;;;;;;;;19.50;55.40;;;;;;5054389;28;19924;-79
2023/06/08 05:44:18;;;;;;;;;;;19.50;55.40;;;;;;5036353;28;20434;-79
2023/06/08 05:46:44;;;;;;;;;;;19.50;55.30;;;;;;5053688;28;20402;-79
2023/06/08 05:49:09;;;;;;;;;;;19.50;55.10;;;;;;5054230;28;19974;-79
2023/06/08 05:51:35;;;;;;;;;;;19.50;55.10;;;;;;5053967;28;19962;-78
2023/06/08 05:54:00;;;;;;;;;;;19.50;55.00;;;;;;5054082;28;19909;-79
2023/06/08 05:56:27;;;;;;;;;;;19.40;55.00;;;;;;5053814;28;19912;-79
2023/06/08 05:58:52;;;;;;;;;;;19.40;55.10;;;;;;5053064;28;19915;-79
2023/06/08 06:01:19;;;;;;;;;;;19.40;55.10;;;;;;5053361;28;19908;-79
2023/06/08 06:03:45;;;;;;;;;;;19.30;55.20;;;;;;5054388;28;20367;-79
2023/06/08 06:06:11;;;;;;;;;;;19.30;55.40;;;;;;5053713;28;19909;-79
2023/06/08 06:08:36;;;;;;;;;;;19.30;55.40;;;;;;5054141;28;19928;-79
2023/06/08 06:11:02;;;;;;;;;;;19.30;55.50;;;;;;5053705;28;19938;-79
2023/06/08 06:13:27;;;;;;;;;;;19.30;55.50;;;;;;5053972;28;19917;-78
2023/06/08 06:15:53;;;;;;;;;;;19.30;55.60;;;;;;5037357;28;19916;-79
2023/06/08 06:18:18;;;;;;;;;;;19.40;55.70;;;;;;5033944;28;20276;-76
2023/06/08 06:20:43;;;;;;;;;;;19.40;55.70;;;;;;5049518;28;19939;-79
2023/06/08 06:23:09;;;;;;;;;;;19.50;55.80;;;;;;5053219;28;19943;-79
2023/06/08 06:25:35;;;;;;;;;;;19.50;55.80;;;;;;5024361;28;20285;-79
2023/06/08 06:28:01;;;;;;;;;;;19.70;55.80;;;;;;5033743;28;20264;-79
2023/06/08 06:30:27;;;;;;;;;;;19.80;55.80;;;;;;5033483;28;19909;-78
2023/06/08 06:32:52;;;;;;;;;;;20.00;55.70;;;;;;5033497;28;19936;-79
2023/06/08 06:35:18;;;;;;;;;;;20.10;55.50;;;;;;5033482;28;19917;-79
2023/06/08 06:37:43;;;;;;;;;;;20.30;55.40;;;;;;5061983;28;20323;-79
2023/06/08 06:40:09;;;;;;;;;;;20.40;55.20;;;;;;5053265;28;19952;-79
2023/06/08 06:42:37;;;;;;;;;;;20.60;54.90;;;;;;5053251;28;19920;-79
2023/06/08 06:45:03;;;;;;;;;;;20.70;54.70;;;;;;5053015;28;20386;-79
2023/06/08 06:47:28;;;;;;;;;;;20.80;54.30;;;;;;5053020;28;20395;-79
2023/06/08 06:49:54;;;;;;;;;;;21.00;54.10;;;;;;5052861;28;19956;-79
2023/06/08 06:52:20;;;;;;;;;;;21.10;54.00;;;;;;5053408;28;20315;-79
2023/06/08 06:54:46;;;;;;;;;;;21.30;53.80;;;;;;5052829;28;19955;-79
2023/06/08 06:57:11;;;;;;;;;;;21.30;53.40;;;;;;5053087;28;20435;-79
2023/06/08 06:59:36;;;;;;;;;;;21.30;52.80;;;;;;5068051;28;20296;-79
2023/06/08 07:02:03;;;;;;;;;;;21.30;52.80;;;;;;5052639;28;20265;-79
2023/06/08 07:04:28;;;;;;;;;;;21.30;52.70;;;;;;5067916;28;20380;-79
2023/06/08 07:06:54;;;;;;;;;;;21.30;52.60;;;;;;5052453;28;20025;-78
2023/06/08 07:09:23;;;;;;;;;;;21.30;52.70;;;;;;5052855;28;19908;-79
2023/06/08 07:11:49;;;;;;;;;;;21.30;52.60;;;;;;5052394;28;20395;-79
2023/06/08 07:14:15;;;;;;;;;;;21.30;52.60;;;;;;5041557;28;19913;-79
2023/06/08 07:16:40;;;;;;;;;;;21.30;52.80;;;;;;5032271;28;19921;-79
2023/06/08 07:19:06;;;;;;;;;;;21.40;52.80;;;;;;5032114;28;20288;-79
2023/06/08 07:21:31;;;;;;;;;;;21.60;52.70;;;;;;5032460;28;19992;-79
2023/06/08 07:24:00;;;;;;;;;;;21.70;52.70;;;;;;5032440;28;19990;-78
2023/06/08 07:26:26;;;;;;;;;;;21.90;52.20;;;;;;5032806;28;19909;-79
2023/06/08 07:28:53;;;;;;;;;;;22.10;51.80;;;;;;5032722;28;19915;-79
2023/06/08 07:31:19;;;;;;;;;;;22.20;51.50;;;;;;5032505;28;19913;-79
2023/06/08 07:33:45;;;;;;;;;;;22.40;51.40;;;;;;5035311;28;19923;-80
2023/06/08 07:36:10;;;;;;;;;;;22.60;50.90;;;;;;5052792;28;19995;-78
2023/06/08 07:38:36;;;;;;;;;;;22.80;50.80;;;;;;5052393;28;19917;-78
2023/06/08 07:41:01;;;;;;;;;;;23.00;50.70;;;;;;5028879;28;20416;-78
2023/06/08 07:43:27;;;;;;;;;;;23.30;50.10;;;;;;5032533;28;19956;-77
2023/06/08 07:45:52;;;;;;;;;;;23.50;49.00;;;;;;5030709;28;19971;-79
2023/06/08 07:48:18;;;;;;;;;;;23.50;48.60;;;;;;5032416;28;19959;-79
2023/06/08 07:50:43;;;;;;;;;;;23.80;48.40;;;;;;5032109;28;19963;-79
2023/06/08 07:53:11;;;;;;;;;;;23.90;47.60;;;;;;5031704;28;19927;-79
2023/06/08 07:55:36;;;;;;;;;;;24.00;47.40;;;;;;5031857;28;19935;-79
2023/06/08 07:58:02;;;;;;;;;;;24.10;47.10;;;;;;5014227;28;19921;-79
2023/06/08 08:00:27;;;;;;;;;;;24.20;46.80;;;;;;5033802;28;20360;-78
2023/06/08 08:02:53;;;;;;;;;;;24.30;46.60;;;;;;5052055;28;19921;-79
2023/06/08 08:05:18;;;;;;;;;;;24.30;46.30;;;;;;5033982;28;19971;-77
2023/06/08 08:07:44;;;;;;;;;;;24.40;46.10;;;;;;5051984;28;19940;-77
2023/06/08 08:10:09;;;;;;;;;;;24.50;46.10;;;;;;5033728;28;19917;-78
2023/06/08 08:12:35;;;;;;;;;;;24.50;46.00;;;;;;5049503;28;19923;-77
2023/06/08 08:15:00;;;;;;;;;;;24.50;45.90;;;;;;5051044;28;19974;-78
2023/06/08 08:17:26;;;;;;;;;;;24.50;45.70;;;;;;5034130;28;20421;-73
2023/06/08 08:19:51;;;;;;;;;;;24.40;45.80;;;;;;5048516;28;20387;-74
2023/06/08 08:22:17;;;;;;;;;;;24.40;45.70;;;;;;5030775;28;19918;-73
2023/06/08 08:24:42;;;;;;;;;;;24.50;45.80;;;;;;5049180;28;20073;-73
2023/06/08 08:27:10;;;;;;;;;;;24.40;45.50;;;;;;5053304;28;19917;-74
2023/06/08 08:29:39;;;;;;;;;;;24.30;45.50;;;;;;5046068;28;19936;-74
2023/06/08 08:32:05;;;;;;;;;;;24.30;45.70;;;;;;5051378;28;19921;-74
2023/06/08 08:34:31;;;;;;;;;;;24.30;45.50;;;;;;5035744;28;19995;-74
2023/06/08 08:36:56;;;;;;;;;;;24.30;45.80;;;;;;5049288;28;20056;-71
2023/06/08 08:39:22;;;;;;;;;;;24.30;45.60;;;;;;5048668;28;19924;-73
2023/06/08 08:41:51;;;;;;;;;;;24.20;45.70;;;;;;5049618;28;19917;-72
2023/06/08 08:44:17;;;;;;;;;;;24.30;46.00;;;;;;5049820;28;19924;-72
2023/06/08 08:46:43;;;;;;;;;;;24.30;46.00;;;;;;5048377;28;19917;-72
2023/06/08 08:49:15;;;;;;;;;;;24.40;45.90;;;;;;5048563;28;20388;-72
2023/06/08 08:51:47;;;;;;;;;;;24.50;45.60;;;;;;5046930;28;20019;-72
2023/06/08 08:54:13;;;;;;;;;;;24.50;45.70;;;;;;5046309;28;20359;-73
2023/06/08 08:56:39;;;;;;;;;;;24.50;45.60;;;;;;5046763;28;20337;-72
2023/06/08 08:59:04;;;;;;;;;;;24.60;45.30;;;;;;5048527;28;19955;-72
2023/06/08 09:01:32;;;;;;;;;;;24.60;45.30;;;;;;5051364;28;19931;-72
2023/06/08 09:03:58;;;;;;;;;;;24.60;45.30;;;;;;5051065;28;20426;-72
2023/06/08 09:06:23;;;;;;;;;;;24.60;45.10;;;;;;5051266;28;20365;-73
2023/06/08 09:08:49;;;;;;;;;;;24.60;45.30;;;;;;5051230;28;19919;-73
2023/06/08 09:11:14;;;;;;;;;;;24.60;45.10;;;;;;5047609;28;19909;-72
2023/06/08 09:13:40;;;;;;;;;;;24.60;45.30;;;;;;5037608;28;19939;-77
2023/06/08 09:16:11;;;;;;;;;;;24.70;45.30;;;;;;5043361;28;19935;-73
2023/06/08 09:18:37;;;;;;;;;;;24.80;45.30;;;;;;5032582;28;19931;-73
2023/06/08 09:21:22;;;;;;;;;;;24.90;45.00;;;;;;5050343;28;20431;-78
2023/06/08 09:24:03;;;;;;;;;;;25.00;45.20;;;;;;5017146;28;19921;-77
2023/06/08 09:26:32;;;;;;;;;;;25.30;45.00;;;;;;5049380;28;20303;-78
2023/06/08 09:29:02;;;;;;;;;;;25.60;44.80;;;;;;5050561;28;20324;-78
2023/06/08 09:31:30;;;;;;;;;;;25.80;44.70;;;;;;5031808;28;20380;-77
2023/06/08 09:34:16;;;;;;;;;;;26.20;44.70;;;;;;5032991;28;19913;-78
2023/06/08 09:36:43;;;;;;;;;;;26.70;44.20;;;;;;5054569;28;19920;-78
2023/06/08 09:39:09;;;;;;;;;;;27.20;43.80;;;;;;5052843;28;19913;-78
2023/06/08 09:41:38;;;;;;;;;;;28.00;43.40;;;;;;5033270;28;19913;-78
2023/06/08 09:44:19;;;;;;;;;;;28.90;42.70;;;;;;5036056;28;19920;-80
2023/06/08 09:46:45;;;;;;;;;;;29.80;41.00;;;;;;5036521;28;20376;-79
2023/06/08 09:49:13;;;;;;;;;;;30.60;39.70;;;;;;5036076;28;20003;-79
2023/06/08 09:51:41;;;;;;;;;;;31.50;39.20;;;;;;5054227;28;20011;-79
2023/06/08 09:54:07;;;;;;;;;;;32.40;36.60;;;;;;5034711;28;20288;-79
2023/06/08 09:56:32;;;;;;;;;;;33.00;35.70;;;;;;5036349;28;20356;-79
2023/06/08 09:59:02;;;;;;;;;;;33.60;34.80;;;;;;5049729;28;19913;-79
2023/06/08 10:01:35;;;;;;;;;;;34.00;34.00;;;;;;5053377;28;19924;-79
2023/06/08 10:04:11;;;;;;;;;;;34.50;33.20;;;;;;5052859;28;20376;-79
2023/06/08 10:06:37;;;;;;;;;;;35.00;32.70;;;;;;5053980;28;19909;-79
2023/06/08 10:09:05;;;;;;;;;;;35.30;31.70;;;;;;5052851;28;20011;-79
2023/06/08 10:11:31;;;;;;;;;;;35.60;31.00;;;;;;5053884;28;20261;-79
2023/06/08 10:13:57;;;;;;;;;;;35.80;29.60;;;;;;5057288;28;20135;-78
2023/06/08 10:16:23;;;;;;;;;;;35.80;29.40;;;;;;5056363;28;19917;-78
2023/06/08 10:18:49;;;;;;;;;;;36.00;29.50;;;;;;5036671;28;20280;-79
2023/06/08 10:21:14;;;;;;;;;;;36.30;28.90;;;;;;5035920;28;20068;-78
2023/06/08 10:23:40;;;;;;;;;;;36.50;28.90;;;;;;5038270;28;19971;-78
2023/06/08 10:26:06;;;;;;;;;;;36.80;28.80;;;;;;5052535;28;19919;-80
2023/06/08 10:28:32;;;;;;;;;;;37.00;28.40;;;;;;5053981;28;19987;-77
2023/06/08 10:30:57;;;;;;;;;;;37.00;27.90;;;;;;5054884;28;19909;-79
2023/06/08 10:33:30;;;;;;;;;;;37.30;28.20;;;;;;5040105;28;20376;-78
2023/06/08 10:36:09;;;;;;;;;;;37.40;27.80;;;;;;5025084;28;20355;-79
2023/06/08 10:38:38;;;;;;;;;;;37.50;27.30;;;;;;5034512;28;19924;-78
2023/06/08 10:41:03;;;;;;;;;;;37.50;27.40;;;;;;5032244;28;19913;-78
2023/06/08 10:43:28;;;;;;;;;;;37.50;27.10;;;;;;5053464;28;20466;-78
2023/06/08 10:45:55;;;;;;;;;;;37.40;26.80;;;;;;5053174;28;19916;-78
2023/06/08 10:48:22;;;;;;;;;;;37.30;27.20;;;;;;5052096;28;19916;-78
2023/06/08 10:50:50;;;;;;;;;;;37.50;27.20;;;;;;5054171;28;19919;-78
2023/06/08 10:53:16;;;;;;;;;;;37.60;27.10;;;;;;5053293;28;19921;-77
2023/06/08 10:55:46;;;;;;;;;;;37.50;26.70;;;;;;5054054;28;20406;-78
2023/06/08 10:58:19;;;;;;;;;;;37.30;27.10;;;;;;5050350;28;19917;-78
2023/06/08 11:00:48;;;;;;;;;;;37.10;27.10;;;;;;5047600;28;19916;-78
2023/06/08 11:03:18;;;;;;;;;;;37.10;27.70;;;;;;5054593;28;20381;-78
2023/06/08 11:05:45;;;;;;;;;;;37.20;27.80;;;;;;5036182;28;19935;-79
2023/06/08 11:08:11;;;;;;;;;;;37.30;27.20;;;;;;5052751;28;19939;-74
2023/06/08 11:10:39;;;;;;;;;;;37.30;27.40;;;;;;5035116;28;19995;-75
2023/06/08 11:13:05;;;;;;;;;;;37.30;27.80;;;;;;5033871;28;19917;-75
2023/06/08 11:15:31;;;;;;;;;;;37.50;27.60;;;;;;5052402;28;19940;-73
2023/06/08 11:17:57;;;;;;;;;;;37.70;27.70;;;;;;5051241;28;19962;-73
2023/06/08 11:20:29;;;;;;;;;;;38.00;27.90;;;;;;5051619;28;20341;-74
2023/06/08 11:22:55;;;;;;;;;;;38.30;26.90;;;;;;5052212;28;19917;-74
2023/06/08 11:25:21;;;;;;;;;;;38.20;26.60;;;;;;5050635;28;19917;-74
2023/06/08 11:27:46;;;;;;;;;;;38.20;26.70;;;;;;5052270;28;19966;-74
2023/06/08 11:30:19;;;;;;;;;;;38.30;26.60;;;;;;5048741;28;20002;-74
2023/06/08 11:32:48;;;;;;;;;;;38.60;26.20;;;;;;5034353;28;19917;-74
2023/06/08 11:35:14;;;;;;;;;;;38.70;26.20;;;;;;5050986;28;19916;-74
2023/06/08 11:37:41;;;;;;;;;;;39.00;26.20;;;;;;5049942;28;20387;-74
2023/06/08 11:40:10;;;;;;;;;;;39.00;25.30;;;;;;5038674;28;19913;-74
2023/06/08 11:42:39;;;;;;;;;;;38.70;25.30;;;;;;5052702;28;19920;-74
2023/06/08 11:45:05;;;;;;;;;;;38.50;25.90;;;;;;5051554;28;20007;-74
2023/06/08 11:47:31;;;;;;;;;;;38.50;26.10;;;;;;5051881;28;19959;-74
2023/06/08 11:49:59;;;;;;;;;;;38.30;25.80;;;;;;5050907;28;19917;-74
2023/06/08 11:52:25;;;;;;;;;;;38.00;25.90;;;;;;5033806;28;19962;-73
2023/06/08 11:54:54;;;;;;;;;;;37.70;26.10;;;;;;5051641;28;19909;-74
2023/06/08 11:57:41;;;;;;;;;;;37.30;26.40;;;;;;5051047;28;20370;-74
2023/06/08 12:00:09;;;;;;;;;;;37.00;26.80;;;;;;5049343;28;20336;-74
2023/06/08 12:02:35;;;;;;;;;;;36.90;27.30;;;;;;5049846;28;19917;-74
2023/06/08 12:05:01;;;;;;;;;;;36.70;27.30;;;;;;5051623;28;19912;-74
2023/06/08 12:07:26;;;;;;;;;;;36.30;27.40;;;;;;5032117;28;19921;-73
2023/06/08 12:09:52;;;;;;;;;;;35.80;27.80;;;;;;5051640;28;19955;-74
2023/06/08 12:12:17;;;;;;;;;;;35.50;28.20;;;;;;5050636;28;19924;-73
2023/06/08 12:14:43;;;;;;;;;;;35.20;28.90;;;;;;5051633;28;19999;-73
2023/06/08 12:17:14;;;;;;;;;;;35.00;29.00;;;;;;5032861;28;19921;-73
2023/06/08 12:19:43;;;;;;;;;;;34.70;29.50;;;;;;5050770;28;20395;-73
2023/06/08 12:22:08;;;;;;;;;;;34.50;30.00;;;;;;5033791;28;19959;-72
2023/06/08 12:24:34;;;;;;;;;;;34.50;30.10;;;;;;5050572;28;20376;-73
2023/06/08 12:26:59;;;;;;;;;;;34.50;30.20;;;;;;5051577;28;20277;-73
2023/06/08 12:29:25;;;;;;;;;;;34.60;30.20;;;;;;5050785;28;19913;-73
2023/06/08 12:31:50;;;;;;;;;;;34.80;30.00;;;;;;5051688;28;19917;-73
2023/06/08 12:34:17;;;;;;;;;;;35.20;30.20;;;;;;5050960;28;20319;-73
2023/06/08 12:36:43;;;;;;;;;;;35.70;29.50;;;;;;5063174;28;19920;-73
2023/06/08 12:39:08;;;;;;;;;;;36.00;29.20;;;;;;5058788;28;20225;-73
2023/06/08 12:41:34;;;;;;;;;;;36.20;28.50;;;;;;5050193;28;20038;-73
2023/06/08 12:43:59;;;;;;;;;;;36.20;28.70;;;;;;5051390;28;19995;-74
2023/06/08 12:46:25;;;;;;;;;;;36.20;28.70;;;;;;5050385;28;19908;-73
2023/06/08 12:48:52;;;;;;;;;;;35.90;28.20;;;;;;5051456;28;19905;-74
2023/06/08 12:51:17;;;;;;;;;;;35.50;28.40;;;;;;5053461;28;20372;-73
2023/06/08 12:53:44;;;;;;;;;;;35.30;28.80;;;;;;5053554;28;19927;-73
2023/06/08 12:56:10;;;;;;;;;;;35.10;29.10;;;;;;5069092;28;19923;-73
2023/06/08 12:58:35;;;;;;;;;;;34.90;29.30;;;;;;5051595;28;20015;-74
2023/06/08 13:01:00;;;;;;;;;;;34.80;29.60;;;;;;5050306;28;19913;-73
2023/06/08 13:03:26;;;;;;;;;;;34.70;29.60;;;;;;5051570;28;20411;-74
2023/06/08 13:05:51;;;;;;;;;;;34.70;29.50;;;;;;5033556;28;19956;-74
2023/06/08 13:08:17;;;;;;;;;;;34.70;29.70;;;;;;5050729;28;20348;-73
2023/06/08 13:10:44;;;;;;;;;;;34.70;29.50;;;;;;5053135;28;19917;-73
2023/06/08 13:13:09;;;;;;;;;;;34.70;29.60;;;;;;5055599;28;20374;-73
2023/06/08 13:15:36;;;;;;;;;;;34.70;29.50;;;;;;5054330;28;19971;-73
2023/06/08 13:18:03;;;;;;;;;;;34.70;29.80;;;;;;5039243;28;20008;-73
2023/06/08 13:20:28;;;;;;;;;;;34.90;29.90;;;;;;5037031;28;19908;-73
2023/06/08 13:22:54;;;;;;;;;;;35.00;29.50;;;;;;5039363;28;19921;-73
2023/06/08 13:25:20;;;;;;;;;;;34.80;28.80;;;;;;5054482;28;19952;-73
2023/06/08 13:27:46;;;;;;;;;;;34.80;29.20;;;;;;5054892;28;20017;-73
2023/06/08 13:30:11;;;;;;;;;;;34.70;29.30;;;;;;5054368;28;20375;-73
2023/06/08 13:32:37;;;;;;;;;;;34.60;29.50;;;;;;5039875;28;19916;-73
2023/06/08 13:35:02;;;;;;;;;;;34.70;29.00;;;;;;5054411;28;19913;-73
2023/06/08 13:37:28;;;;;;;;;;;34.70;28.60;;;;;;5067286;28;20370;-73
2023/06/08 13:39:53;;;;;;;;;;;34.70;28.80;;;;;;5054890;28;19982;-74
2023/06/08 13:42:19;;;;;;;;;;;34.60;28.00;;;;;;5054035;28;19964;-76
2023/06/08 13:44:48;;;;;;;;;;;34.40;28.40;;;;;;5034946;28;20356;-73
2023/06/08 13:47:13;;;;;;;;;;;34.30;28.00;;;;;;5053229;28;20458;-73
2023/06/08 13:49:42;;;;;;;;;;;34.30;28.30;;;;;;5053704;28;19954;-73
2023/06/08 13:52:08;;;;;;;;;;;34.30;28.60;;;;;;5054266;28;19917;-73
2023/06/08 13:54:33;;;;;;;;;;;34.20;28.40;;;;;;5033943;28;19912;-73
2023/06/08 13:56:59;;;;;;;;;;;34.10;28.60;;;;;;5054434;28;19983;-73
2023/06/08 13:59:25;;;;;;;;;;;34.10;28.40;;;;;;5054791;28;20268;-73
2023/06/08 14:01:50;;;;;;;;;;;34.10;28.30;;;;;;5035694;28;19921;-74
2023/06/08 14:04:16;;;;;;;;;;;34.00;28.30;;;;;;5053254;28;19912;-73
2023/06/08 14:06:44;;;;;;;;;;;34.00;28.50;;;;;;5054103;28;19966;-73
2023/06/08 14:09:10;;;;;;;;;;;34.00;28.80;;;;;;5052849;28;19916;-73
2023/06/08 14:11:35;;;;;;;;;;;34.00;28.90;;;;;;5053837;28;19912;-73
2023/06/08 14:14:01;;;;;;;;;;;34.00;29.20;;;;;;5052987;28;19920;-73